createdAt,value
2022-11-17T00:02:09.302Z,97800.94
2022-11-17T00:04:37.728Z,97804.38
2022-11-17T00:07:07.533Z,97786.25
2022-11-17T00:09:35.933Z,97787.13
2022-11-17T00:12:32.981Z,97789.72
2022-11-17T00:15:01.660Z,97778.44
2022-11-17T00:17:30.133Z,97775.84
2022-11-17T00:20:16.135Z,97767.22
2022-11-17T00:22:45.976Z,97758.56
2022-11-17T00:25:14.456Z,97756.84
2022-11-17T00:27:42.866Z,97749.06
2022-11-17T00:30:32.541Z,97745.59
2022-11-17T00:33:20.960Z,97738.69
2022-11-17T00:35:54.636Z,97730.00
2022-11-17T00:38:24.688Z,97713.59
2022-11-17T00:40:53.149Z,97709.25
2022-11-17T00:43:21.643Z,97704.09
2022-11-17T00:45:50.379Z,97685.94
2022-11-17T00:48:18.917Z,97672.13
2022-11-17T00:50:47.291Z,97664.31
2022-11-17T00:53:15.722Z,97658.28
2022-11-17T00:55:45.819Z,97640.13
2022-11-17T00:58:14.474Z,97634.09
2022-11-17T01:00:42.867Z,97630.63
2022-11-17T01:03:11.691Z,97635.81
2022-11-17T01:05:40.138Z,97615.94
2022-11-17T01:08:08.682Z,97610.75
2022-11-17T01:10:37.899Z,97615.03
2022-11-17T01:13:08.252Z,97609.03
2022-11-17T01:15:36.806Z,97607.28
2022-11-17T01:18:05.528Z,97607.28
2022-11-17T01:20:34.785Z,97602.97
2022-11-17T01:23:03.333Z,97614.19
2022-11-17T01:25:32.568Z,97609.00
2022-11-17T01:28:01.031Z,97603.84
2022-11-17T01:30:30.826Z,97613.31
2022-11-17T01:32:59.225Z,97601.25
2022-11-17T01:35:27.592Z,97603.84
2022-11-17T01:37:56.470Z,97589.13
2022-11-17T01:40:24.858Z,97593.47
2022-11-17T01:42:53.725Z,97576.16
2022-11-17T01:45:23.677Z,97575.31
2022-11-17T01:47:56.134Z,97571.88
2022-11-17T01:50:32.793Z,97566.66
2022-11-17T01:53:04.056Z,97557.16
2022-11-17T01:55:37.009Z,97542.47
2022-11-17T01:58:10.515Z,97527.78
2022-11-17T02:00:39.073Z,97531.25
2022-11-17T02:03:09.578Z,97517.44
2022-11-17T02:05:46.608Z,97507.06
2022-11-17T02:08:17.650Z,97512.22
2022-11-17T02:10:51.417Z,97492.34
2022-11-17T02:13:21.418Z,97500.13
2022-11-17T02:15:50.185Z,97494.06
2022-11-17T02:18:21.107Z,97481.13
2022-11-17T02:21:18.420Z,97469.00
2022-11-17T02:24:55.227Z,97470.75
2022-11-17T02:28:05.496Z,97464.66
2022-11-17T02:30:39.691Z,97459.50
2022-11-17T02:33:14.171Z,97465.53
2022-11-17T02:35:50.616Z,97468.13
2022-11-17T02:38:29.736Z,97456.03
2022-11-17T02:41:07.294Z,97447.41
2022-11-17T02:44:02.198Z,97430.97
2022-11-17T02:46:42.271Z,97427.53
2022-11-17T02:49:19.795Z,97429.28
2022-11-17T02:51:52.587Z,97424.09
2022-11-17T02:54:22.865Z,97424.09
2022-11-17T02:56:51.274Z,97424.06
2022-11-17T02:59:26.495Z,97420.63
2022-11-17T03:02:30.153Z,97416.31
2022-11-17T03:05:11.372Z,97408.53
2022-11-17T03:07:52.742Z,97407.69
2022-11-17T03:10:24.768Z,97393.88
2022-11-17T03:13:01.238Z,97400.78
2022-11-17T03:15:44.904Z,97406.81
2022-11-17T03:18:22.123Z,97393.00
2022-11-17T03:21:01.825Z,97387.81
2022-11-17T03:23:35.815Z,97386.09
2022-11-17T03:26:09.566Z,97379.22
2022-11-17T03:28:38.474Z,97374.03
2022-11-17T03:31:10.408Z,97376.59
2022-11-17T03:33:40.402Z,97376.59
2022-11-17T03:36:13.196Z,97374.00
2022-11-17T03:38:48.298Z,97370.56
2022-11-17T03:41:19.565Z,97373.16
2022-11-17T03:43:51.865Z,97365.38
2022-11-17T03:46:24.412Z,97360.19
2022-11-17T03:48:59.196Z,97360.19
2022-11-17T03:51:31.389Z,97353.31
2022-11-17T03:54:00.000Z,97356.75
2022-11-17T03:56:39.489Z,97349.84
2022-11-17T03:59:15.564Z,97361.03
2022-11-17T04:01:45.458Z,97356.75
2022-11-17T04:04:18.724Z,97356.75
2022-11-17T04:06:47.801Z,97349.84
2022-11-17T04:09:21.366Z,97346.41
2022-11-17T04:12:10.293Z,97345.50
2022-11-17T04:14:56.539Z,97343.81
2022-11-17T04:17:26.960Z,97330.81
2022-11-17T04:19:55.485Z,97338.59
2022-11-17T04:22:24.437Z,97327.38
2022-11-17T04:24:52.948Z,97322.19
2022-11-17T04:27:38.935Z,97311.81
2022-11-17T04:30:08.595Z,97317.84
2022-11-17T04:32:38.456Z,97313.59
2022-11-17T04:35:07.748Z,97317.00
2022-11-17T04:37:36.371Z,97315.25
2022-11-17T04:40:05.949Z,97307.50
2022-11-17T04:42:33.214Z,97308.41
2022-11-17T04:45:01.798Z,97308.41
2022-11-17T04:47:30.723Z,97301.47
2022-11-17T04:50:01.086Z,97297.16
2022-11-17T04:52:30.141Z,97302.34
2022-11-17T04:54:58.711Z,97292.88
2022-11-17T04:57:27.039Z,97300.63
2022-11-17T04:59:55.366Z,97298.88
2022-11-17T05:02:24.020Z,97293.69
2022-11-17T05:04:58.598Z,97289.38
2022-11-17T05:07:28.538Z,97290.25
2022-11-17T05:09:57.068Z,97288.53
2022-11-17T05:12:43.168Z,97276.44
2022-11-17T05:15:11.767Z,97272.09
2022-11-17T05:17:39.079Z,97274.69
2022-11-17T05:20:09.256Z,97275.56
2022-11-17T05:22:56.614Z,97275.59
2022-11-17T05:25:25.079Z,97274.75
2022-11-17T05:27:54.802Z,97273.84
2022-11-17T05:30:23.376Z,97274.75
2022-11-17T05:32:51.789Z,97276.44
2022-11-17T05:35:20.201Z,97271.25
2022-11-17T05:37:50.694Z,97270.38
2022-11-17T05:40:19.720Z,97272.97
2022-11-17T05:42:50.719Z,97264.38
2022-11-17T05:45:22.718Z,97266.06
2022-11-17T05:47:51.375Z,97270.41
2022-11-17T05:50:19.772Z,97262.63
2022-11-17T05:52:49.845Z,97260.06
2022-11-17T05:55:18.301Z,97273.88
2022-11-17T05:57:47.701Z,97271.28
2022-11-17T06:00:17.419Z,97282.50
2022-11-17T06:02:50.423Z,97287.66
2022-11-17T06:05:20.609Z,97284.22
2022-11-17T06:07:52.114Z,97272.16
2022-11-17T06:10:20.499Z,97273.88
2022-11-17T06:12:48.884Z,97270.44
2022-11-17T06:15:17.444Z,97269.53
2022-11-17T06:17:51.691Z,97264.38
2022-11-17T06:20:26.472Z,97272.13
2022-11-17T06:22:58.850Z,97266.94
2022-11-17T06:25:28.800Z,97272.13
2022-11-17T06:27:59.256Z,97265.25
2022-11-17T06:30:28.015Z,97269.56
2022-11-17T06:32:57.362Z,97262.66
2022-11-17T06:35:26.510Z,97267.81
2022-11-17T06:37:56.924Z,97256.59
2022-11-17T06:40:25.288Z,97265.22
2022-11-17T06:43:08.437Z,97267.84
2022-11-17T06:45:37.881Z,97275.63
2022-11-17T06:48:07.550Z,97281.66
2022-11-17T06:50:36.508Z,97285.09
2022-11-17T06:53:10.010Z,97284.22
2022-11-17T06:55:39.036Z,97295.47
2022-11-17T06:58:11.627Z,97304.94
2022-11-17T07:00:40.536Z,97302.38
2022-11-17T07:03:11.446Z,97303.22
2022-11-17T07:05:40.623Z,97308.41
2022-11-17T07:08:11.382Z,97290.28
2022-11-17T07:10:44.951Z,97300.63
2022-11-17T07:13:16.728Z,97301.50
2022-11-17T07:15:45.389Z,97288.53
2022-11-17T07:18:14.515Z,97298.91
2022-11-17T07:20:42.988Z,97298.03
2022-11-17T07:23:12.881Z,97297.19
2022-11-17T07:25:41.567Z,97302.38
2022-11-17T07:28:10.229Z,97296.34
2022-11-17T07:30:38.666Z,97295.47
2022-11-17T07:33:08.163Z,97298.03
2022-11-17T07:35:38.103Z,97294.59
2022-11-17T07:38:06.603Z,97295.47
2022-11-17T07:40:36.783Z,97298.03
2022-11-17T07:43:05.455Z,97296.34
2022-11-17T07:45:37.079Z,97299.78
2022-11-17T07:48:07.310Z,97299.78
2022-11-17T07:50:37.042Z,97299.78
2022-11-17T07:53:06.309Z,97300.63
2022-11-17T07:55:36.521Z,97299.78
2022-11-17T07:58:05.325Z,97306.69
2022-11-17T08:00:34.629Z,97316.16
2022-11-17T08:03:04.119Z,97319.63
2022-11-17T08:05:37.097Z,97318.75
2022-11-17T08:08:09.434Z,97323.06
2022-11-17T08:10:39.734Z,97326.53
2022-11-17T08:13:08.808Z,97337.75
2022-11-17T08:15:37.337Z,97341.19
2022-11-17T08:18:06.640Z,97336.03
2022-11-17T08:20:35.311Z,97335.16
2022-11-17T08:23:03.772Z,97340.34
2022-11-17T08:25:32.208Z,97342.09
2022-11-17T08:28:02.410Z,97342.94
2022-11-17T08:30:34.806Z,97348.97
2022-11-17T08:33:03.668Z,97349.84
2022-11-17T08:35:37.336Z,97350.69
2022-11-17T08:38:06.884Z,97363.66
2022-11-17T08:40:35.344Z,97361.06
2022-11-17T08:43:05.589Z,97365.38
2022-11-17T08:45:34.002Z,97365.41
2022-11-17T08:48:04.065Z,97377.47
2022-11-17T08:50:32.506Z,97393.91
2022-11-17T08:53:00.947Z,97400.78
2022-11-17T08:55:29.574Z,97404.25
2022-11-17T08:57:58.183Z,97412.88
2022-11-17T09:00:28.002Z,97409.44
2022-11-17T09:02:57.140Z,97405.09
2022-11-17T09:05:25.930Z,97416.34
2022-11-17T09:07:54.515Z,97411.13
2022-11-17T09:10:23.091Z,97416.31
2022-11-17T09:12:51.668Z,97418.06
2022-11-17T09:15:20.320Z,97420.66
2022-11-17T09:17:50.535Z,97425.84
2022-11-17T09:20:20.931Z,97434.47
2022-11-17T09:22:50.049Z,97436.19
2022-11-17T09:25:18.679Z,97440.53
2022-11-17T09:27:50.940Z,97443.97
2022-11-17T09:30:22.278Z,97443.09
2022-11-17T09:32:52.818Z,97443.13
2022-11-17T09:35:22.671Z,97446.56
2022-11-17T09:37:51.048Z,97444.88
2022-11-17T09:40:21.022Z,97451.75
2022-11-17T09:42:49.685Z,97456.97
2022-11-17T09:45:24.596Z,97452.63
2022-11-17T09:48:18.579Z,97449.19
2022-11-17T09:50:50.243Z,97447.47
2022-11-17T09:53:27.973Z,97455.22
2022-11-17T09:56:02.091Z,97444.88
2022-11-17T09:58:36.290Z,97451.81
2022-11-17T10:01:05.401Z,97447.50
2022-11-17T10:03:43.599Z,97450.06
2022-11-17T10:06:17.472Z,97451.78
2022-11-17T10:08:58.383Z,97454.41
2022-11-17T10:11:34.922Z,97460.44
2022-11-17T10:14:11.810Z,97454.41
2022-11-17T10:16:42.515Z,97456.13
2022-11-17T10:19:18.953Z,97461.31
2022-11-17T10:21:51.496Z,97472.56
2022-11-17T10:24:38.219Z,97472.56
2022-11-17T10:27:19.702Z,97478.59
2022-11-17T10:30:01.466Z,97482.03
2022-11-17T10:32:32.750Z,97480.34
2022-11-17T10:35:17.992Z,97485.53
2022-11-17T10:37:55.536Z,97478.63
2022-11-17T10:40:27.035Z,97482.91
2022-11-17T10:43:01.937Z,97482.91
2022-11-17T10:45:30.652Z,97475.16
2022-11-17T10:48:32.753Z,97482.06
2022-11-17T10:51:04.339Z,97492.44
2022-11-17T10:53:45.081Z,97494.16
2022-11-17T10:56:17.833Z,97492.44
2022-11-17T10:59:03.966Z,97503.66
2022-11-17T11:01:35.206Z,97503.66
2022-11-17T11:04:06.033Z,97512.31
2022-11-17T11:06:36.709Z,97501.06
2022-11-17T11:09:11.007Z,97497.63
2022-11-17T11:11:45.886Z,97505.41
2022-11-17T11:14:24.912Z,97501.09
2022-11-17T11:16:53.762Z,97515.78
2022-11-17T11:19:22.753Z,97507.16
2022-11-17T11:22:24.755Z,97496.78
2022-11-17T11:25:17.006Z,97510.59
2022-11-17T11:28:06.603Z,97504.56
2022-11-17T11:30:39.895Z,97508.84
2022-11-17T11:33:24.886Z,97507.13
2022-11-17T11:36:11.407Z,97506.28
2022-11-17T11:38:53.169Z,97515.78
2022-11-17T11:41:41.451Z,97516.69
2022-11-17T11:44:42.463Z,97516.69
2022-11-17T11:47:27.083Z,97514.94
2022-11-17T11:49:59.155Z,97514.94
2022-11-17T11:52:33.792Z,97514.94
2022-11-17T11:55:16.220Z,97514.06
2022-11-17T11:57:51.716Z,97516.69
2022-11-17T12:00:21.239Z,97529.66
2022-11-17T12:02:56.725Z,97533.97
2022-11-17T12:05:30.580Z,97533.16
2022-11-17T12:08:10.983Z,97541.81
2022-11-17T12:10:49.928Z,97542.66
2022-11-17T12:13:22.932Z,97543.53
2022-11-17T12:15:53.435Z,97540.09
2022-11-17T12:18:33.446Z,97535.75
2022-11-17T12:21:05.984Z,97542.66
2022-11-17T12:24:14.833Z,97536.56
2022-11-17T12:26:45.058Z,97546.13
2022-11-17T12:29:31.897Z,97545.22
2022-11-17T12:32:03.097Z,97549.53
2022-11-17T12:34:37.254Z,97548.72
2022-11-17T12:37:27.948Z,97553.91
2022-11-17T12:39:59.791Z,97548.72
2022-11-17T12:42:31.385Z,97553.03
2022-11-17T12:45:02.377Z,97548.72
2022-11-17T12:47:33.449Z,97559.09
2022-11-17T12:50:46.590Z,97551.31
2022-11-17T12:53:29.746Z,97559.09
2022-11-17T12:56:33.282Z,97562.56
2022-11-17T12:59:27.571Z,97564.25
2022-11-17T13:02:05.577Z,97568.59
2022-11-17T13:04:45.080Z,97568.59
2022-11-17T13:07:22.354Z,97575.50
2022-11-17T13:09:53.103Z,97586.75
2022-11-17T13:12:26.997Z,97586.75
2022-11-17T13:14:58.608Z,97591.09
2022-11-17T13:17:30.824Z,97582.44
2022-11-17T13:20:05.922Z,97597.16
2022-11-17T13:22:38.998Z,97591.09
2022-11-17T13:25:23.606Z,97587.63
2022-11-17T13:27:57.130Z,97597.13
2022-11-17T13:30:31.851Z,97597.13
2022-11-17T13:33:03.878Z,97598.00
2022-11-17T13:35:34.664Z,97597.09
2022-11-17T13:38:07.502Z,97604.91
2022-11-17T13:40:38.839Z,97605.75
2022-11-17T13:43:12.091Z,97593.66
2022-11-17T13:45:43.460Z,97595.38
2022-11-17T13:48:34.240Z,97589.34
2022-11-17T13:51:24.216Z,97591.94
2022-11-17T13:53:56.254Z,97585.84
2022-11-17T13:56:30.612Z,97591.03
2022-11-17T13:59:01.079Z,97587.56
2022-11-17T14:01:33.176Z,97586.69
2022-11-17T14:04:19.987Z,97583.25
2022-11-17T14:06:59.198Z,97593.63
2022-11-17T14:09:30.757Z,97589.28
2022-11-17T14:12:00.007Z,97587.56
2022-11-17T14:14:34.942Z,97590.16
2022-11-17T14:17:21.014Z,97591.03
2022-11-17T14:19:50.953Z,97598.81
2022-11-17T14:22:31.353Z,97602.25
2022-11-17T14:25:00.667Z,97604.84
2022-11-17T14:27:41.630Z,97605.72
2022-11-17T14:30:15.766Z,97599.66
2022-11-17T14:32:45.734Z,97613.50
2022-11-17T14:35:15.433Z,97607.50
2022-11-17T14:37:43.902Z,97603.19
2022-11-17T14:40:15.882Z,97611.81
2022-11-17T14:42:44.294Z,97604.91
2022-11-17T14:45:15.435Z,97616.16
2022-11-17T14:47:45.489Z,97616.09
2022-11-17T14:50:16.063Z,97612.63
2022-11-17T14:52:46.447Z,97614.34
2022-11-17T14:55:15.930Z,97617.81
2022-11-17T14:57:45.053Z,97616.94
2022-11-17T15:00:20.008Z,97627.31
2022-11-17T15:02:51.121Z,97629.06
2022-11-17T15:05:19.887Z,97627.34
2022-11-17T15:07:48.613Z,97637.69
2022-11-17T15:10:17.801Z,97644.59
2022-11-17T15:12:46.524Z,97629.03
2022-11-17T15:15:15.305Z,97642.88
2022-11-17T15:17:44.327Z,97648.09
2022-11-17T15:20:14.476Z,97642.00
2022-11-17T15:22:42.915Z,97648.91
2022-11-17T15:25:11.591Z,97654.13
2022-11-17T15:27:40.387Z,97667.97
2022-11-17T15:30:10.665Z,97660.16
2022-11-17T15:32:38.962Z,97662.72
2022-11-17T15:35:08.472Z,97659.28
2022-11-17T15:37:38.613Z,97660.16
2022-11-17T15:40:08.854Z,97659.28
2022-11-17T15:42:37.589Z,97656.69
2022-11-17T15:45:06.984Z,97673.97
2022-11-17T15:47:35.461Z,97669.63
2022-11-17T15:50:03.887Z,97667.88
2022-11-17T15:52:56.789Z,97672.22
2022-11-17T15:55:22.835Z,97667.88
2022-11-17T15:57:54.656Z,97676.53
2022-11-17T16:00:23.714Z,97673.94
2022-11-17T16:02:57.363Z,97678.28
2022-11-17T16:05:27.895Z,97681.72
2022-11-17T16:07:56.282Z,97686.03
2022-11-17T16:10:27.242Z,97684.31
2022-11-17T16:12:56.426Z,97683.44
2022-11-17T16:15:24.900Z,97689.50
2022-11-17T16:17:53.492Z,97683.44
2022-11-17T16:20:22.062Z,97683.44
2022-11-17T16:22:50.502Z,97687.78
2022-11-17T16:25:18.899Z,97693.81
2022-11-17T16:27:49.042Z,97692.94
2022-11-17T16:30:18.075Z,97705.03
2022-11-17T16:32:46.451Z,97705.91
2022-11-17T16:35:14.983Z,97713.69
2022-11-17T16:37:43.558Z,97722.34
2022-11-17T16:40:12.878Z,97724.03
2022-11-17T16:42:45.803Z,97707.59
2022-11-17T16:45:15.766Z,97711.94
2022-11-17T16:47:44.250Z,97714.53
2022-11-17T16:50:12.851Z,97707.63
2022-11-17T16:52:41.346Z,97700.69
2022-11-17T16:55:10.090Z,97710.22
2022-11-17T16:57:38.510Z,97709.34
2022-11-17T17:00:09.105Z,97719.72
2022-11-17T17:02:39.077Z,97723.16
2022-11-17T17:05:08.473Z,97716.22
2022-11-17T17:07:37.080Z,97711.06
2022-11-17T17:10:06.535Z,97712.81
2022-11-17T17:12:35.191Z,97713.66
2022-11-17T17:15:04.630Z,97719.69
2022-11-17T17:17:33.195Z,97717.94
2022-11-17T17:20:03.559Z,97722.25
2022-11-17T17:22:32.009Z,97721.41
2022-11-17T17:25:00.497Z,97725.69
2022-11-17T17:27:32.020Z,97728.28
2022-11-17T17:30:00.706Z,97729.13
2022-11-17T17:32:29.071Z,97731.72
2022-11-17T17:34:57.489Z,97731.69
2022-11-17T17:37:28.013Z,97740.34
2022-11-17T17:39:56.841Z,97740.34
2022-11-17T17:42:25.650Z,97735.16
2022-11-17T17:44:54.513Z,97736.00
2022-11-17T17:47:23.355Z,97741.19
2022-11-17T17:49:52.033Z,97743.78
2022-11-17T17:52:20.902Z,97743.75
2022-11-17T17:54:50.866Z,97746.34
2022-11-17T17:57:19.632Z,97752.41
2022-11-17T17:59:48.506Z,97754.13
2022-11-17T18:02:17.390Z,97752.41
2022-11-17T18:04:45.789Z,97753.28
2022-11-17T18:07:14.354Z,97764.50
2022-11-17T18:09:42.936Z,97758.47
2022-11-17T18:12:13.228Z,97753.25
2022-11-17T18:14:41.614Z,97765.34
2022-11-17T18:17:10.290Z,97767.94
2022-11-17T18:19:38.728Z,97766.22
2022-11-17T18:22:07.444Z,97762.72
2022-11-17T18:24:36.078Z,97766.22
2022-11-17T18:27:04.767Z,97768.75
2022-11-17T18:29:35.044Z,97781.72
2022-11-17T18:32:03.459Z,97778.25
2022-11-17T18:34:32.730Z,97780.84
2022-11-17T18:37:01.139Z,97783.41
2022-11-17T18:39:31.347Z,97786.84
2022-11-17T18:42:00.081Z,97785.13
2022-11-17T18:44:30.814Z,97792.03
2022-11-17T18:47:03.102Z,97800.63
2022-11-17T18:49:34.518Z,97800.63
2022-11-17T18:52:03.342Z,97801.50
2022-11-17T18:54:31.851Z,97808.41
2022-11-17T18:57:01.551Z,97816.19
2022-11-17T18:59:30.107Z,97807.56
2022-11-17T19:02:00.448Z,97820.50
2022-11-17T19:04:29.567Z,97817.00
2022-11-17T19:06:58.196Z,97819.59
2022-11-17T19:09:26.692Z,97820.47
2022-11-17T19:11:55.456Z,97824.75
2022-11-17T19:14:24.211Z,97823.00
2022-11-17T19:17:02.163Z,97828.19
2022-11-17T19:19:30.830Z,97830.75
2022-11-17T19:21:59.411Z,97834.22
2022-11-17T19:24:28.144Z,97838.53
2022-11-17T19:26:56.571Z,97843.72
2022-11-17T19:29:25.456Z,97836.78
2022-11-17T19:31:53.843Z,97848.03
2022-11-17T19:34:23.663Z,97848.88
2022-11-17T19:36:52.063Z,97859.22
2022-11-17T19:39:20.621Z,97860.94
2022-11-17T19:41:49.172Z,97868.72
2022-11-17T19:44:17.593Z,97859.19
2022-11-17T19:46:46.099Z,97861.78
2022-11-17T19:49:15.183Z,97862.63
2022-11-17T19:51:45.702Z,97870.38
2022-11-17T19:54:15.479Z,97875.53
2022-11-17T19:56:44.122Z,97873.81
2022-11-17T19:59:16.476Z,97881.59
2022-11-17T20:01:46.788Z,97879.84
2022-11-17T20:04:16.036Z,97883.28
2022-11-17T20:06:46.001Z,97887.63
2022-11-17T20:09:16.125Z,97883.31
2022-11-17T20:11:45.184Z,97895.41
2022-11-17T20:14:14.746Z,97894.53
2022-11-17T20:16:43.356Z,97892.81
2022-11-17T20:19:13.606Z,97898.84
2022-11-17T20:21:42.332Z,97900.56
2022-11-17T20:24:12.656Z,97901.41
2022-11-17T20:26:43.015Z,97905.75
2022-11-17T20:29:11.405Z,97906.56
2022-11-17T20:31:39.887Z,97905.69
2022-11-17T20:34:08.266Z,97916.06
2022-11-17T20:36:37.116Z,97916.06
2022-11-17T20:39:07.741Z,97921.25
2022-11-17T20:41:38.271Z,97920.38
2022-11-17T20:44:23.835Z,97916.00
2022-11-17T20:46:54.854Z,97916.00
2022-11-17T20:49:23.972Z,97922.03
2022-11-17T20:51:52.642Z,97926.38
2022-11-17T20:54:21.019Z,97929.81
2022-11-17T20:56:51.278Z,97931.53
2022-11-17T20:59:20.513Z,97934.13
2022-11-17T21:01:50.546Z,97933.25
2022-11-17T21:04:19.176Z,97941.88
2022-11-17T21:06:48.180Z,97938.41
2022-11-17T21:09:17.010Z,97938.41
2022-11-17T21:12:02.382Z,97953.09
2022-11-17T21:14:32.300Z,97952.22
2022-11-17T21:17:01.817Z,97953.91
2022-11-17T21:19:31.646Z,97953.03
2022-11-17T21:22:01.883Z,97953.03
2022-11-17T21:24:30.435Z,97960.81
2022-11-17T21:26:59.128Z,97959.94
2022-11-17T21:29:29.031Z,97969.41
2022-11-17T21:31:58.801Z,97967.66
2022-11-17T21:34:27.289Z,97972.00
2022-11-17T21:36:55.741Z,97977.19
2022-11-17T21:39:24.597Z,97975.47
2022-11-17T21:41:53.313Z,97979.78
2022-11-17T21:44:21.814Z,97972.84
2022-11-17T21:46:50.273Z,97973.72
2022-11-17T21:49:20.607Z,97978.03
2022-11-17T21:51:49.132Z,97981.50
2022-11-17T21:54:19.006Z,97980.63
2022-11-17T21:56:47.865Z,97986.69
2022-11-17T21:59:17.314Z,97986.66
2022-11-17T22:01:46.001Z,97987.53
2022-11-17T22:04:15.771Z,97998.72
2022-11-17T22:06:46.076Z,97998.72
2022-11-17T22:09:15.275Z,98001.28
2022-11-17T22:11:44.157Z,98010.78
2022-11-17T22:14:15.044Z,98003.88
2022-11-17T22:16:45.935Z,98004.72
2022-11-17T22:19:16.335Z,97997.81
2022-11-17T22:21:49.498Z,98011.66
2022-11-17T22:24:19.276Z,98000.38
2022-11-17T22:26:48.689Z,98012.47
2022-11-17T22:29:19.705Z,98015.94
2022-11-17T22:31:50.036Z,98011.63
2022-11-17T22:34:19.356Z,98010.72
2022-11-17T22:36:49.605Z,98012.44
2022-11-17T22:39:19.378Z,98015.03
2022-11-17T22:41:48.082Z,98017.59
2022-11-17T22:44:17.305Z,98025.34
2022-11-17T22:46:45.963Z,98021.00
2022-11-17T22:49:15.234Z,98017.59
2022-11-17T22:52:01.543Z,98014.09
2022-11-17T22:54:31.829Z,98013.22
2022-11-17T22:57:00.826Z,98010.59
2022-11-17T22:59:30.785Z,98009.72
2022-11-17T23:01:59.187Z,98011.41
2022-11-17T23:04:27.690Z,98012.31
2022-11-17T23:06:56.141Z,98024.38
2022-11-17T23:09:24.728Z,98033.03
2022-11-17T23:11:54.693Z,98031.28
2022-11-17T23:14:23.381Z,98039.91
2022-11-17T23:16:51.960Z,98043.31
2022-11-17T23:19:21.634Z,98042.44
2022-11-17T23:21:50.238Z,98049.38
2022-11-17T23:24:18.815Z,98050.22
2022-11-17T23:26:47.879Z,98060.53
2022-11-17T23:29:17.910Z,98057.97
2022-11-17T23:31:46.498Z,98055.34
2022-11-17T23:34:15.301Z,98059.63
2022-11-17T23:36:43.888Z,98060.47
2022-11-17T23:39:12.456Z,98066.50
2022-11-17T23:41:40.885Z,98063.03
2022-11-17T23:44:09.338Z,98060.44
2022-11-17T23:46:39.621Z,98067.34
2022-11-17T23:49:08.283Z,98068.19
2022-11-17T23:51:37.398Z,98074.22
2022-11-17T23:54:06.125Z,98073.31
2022-11-17T23:56:35.627Z,98074.19
2022-11-17T23:59:04.304Z,98086.22
